Victory — E5U2349 — position and weather

sailwx.info

Track history (hours):
 
Tides and Currents Weather Stations Pressure Air Temp Water Temp Dewpoint Dewpoint Depression Visibility Wind Speed Wind Dir Waves Ship Positions

Victory

Last reported at 2014-Jul-31 13:33 UTC. Time now 2014-Aug-01 03:47 UTC.
Position N 43°33' E 007°01'.

Length 51 m; draft 3 m.

Type: Pleasure craft. MMSI: 518399000.

Date/timePositionNaut miles runAvg speedWind from/ knotsBaromVisibWave heightAir tempDewpointWater temp
2014-Jul-31 13:33N 43°33' E 007°01'0 0.0
2014-Jul-31 09:16N 43°33' E 007°01'2 3.0
2014-Jul-31 08:33N 43°31' E 007°01'1413.8
2014-Jul-31 07:34N 43°38' E 007°18'8 7.0
2014-Jul-31 06:27N 43°43' E 007°25'0 0.0
2014-Jul-31 04:24N 43°43' E 007°25'0 0.0
2014-Jul-31 03:30N 43°43' E 007°25'0 0.0
2014-Jul-31 02:30N 43°43' E 007°25'0 0.0
2014-Jul-30 18:33N 43°43' E 007°25'0 0.0
2014-Jul-30 16:11N 43°43' E 007°25'54 9.1
2014-Jul-30 10:17N 44°10' E 008°30'710.2
2014-Jul-30 09:33N 44°16' E 008°37'1010.0
2014-Jul-30 08:33N 44°23' E 008°47'3 3.2
2014-Jul-30 07:32N 44°25' E 008°50'0 0.0
2014-Jul-30 06:05N 44°25' E 008°50'0 0.0
2014-Jul-30 04:11N 44°25' E 008°50'0 0.0
2014-Jul-29 23:26N 44°25' E 008°50'0 0.0
2014-Jul-29 19:26N 44°25' E 008°50'0 0.0
2014-Jul-29 18:11N 44°25' E 008°50'0 0.0
2014-Jul-29 11:29N 44°25' E 008°50'0 0.0
2014-Jul-29 10:23N 44°25' E 008°50'0 0.0
2014-Jul-29 07:29N 44°25' E 008°50'0 0.0
2014-Jul-29 06:05N 44°25' E 008°50'0 0.0
2014-Jul-29 01:11N 44°25' E 008°50'0 0.0
2014-Jul-28 02:05N 44°25' E 008°50'0 0.0
2014-Jul-28 01:26N 44°25' E 008°50'0 0.0
2014-Jul-28 00:11N 44°25' E 008°50'0 0.0
2014-Jul-27 19:29N 44°25' E 008°50'0 0.0
2014-Jul-27 16:05N 44°25' E 008°50'0 0.0
2014-Jul-27 15:29N 44°25' E 008°50'0 0.0
2014-Jul-27 14:20N 44°25' E 008°50'0 0.0
2014-Jul-27 12:17N 44°25' E 008°50'0 0.0
2014-Jul-27 04:17N 44°25' E 008°50'0 0.0
2014-Jul-27 02:29N 44°25' E 008°50'0 0.0
2014-Jul-27 01:05N 44°25' E 008°50'0 0.0
2014-Jul-27 00:11N 44°25' E 008°50'0 0.0
2014-Jul-26 19:29N 44°25' E 008°50'0 0.0
2014-Jul-26 11:29N 44°25' E 008°50'0 0.0
2014-Jul-26 00:29N 44°25' E 008°50'0 0.0
2014-Jul-25 19:29N 44°25' E 008°50'0 0.0
2014-Jul-25 11:17N 44°25' E 008°50'0 0.0
2014-Jul-25 01:20N 44°25' E 008°50'0 0.0
2014-Jul-25 00:26N 44°25' E 008°50'0 0.0
2014-Jul-24 23:32N 44°25' E 008°50'0 0.0
2014-Jul-24 19:17N 44°25' E 008°50'0 0.0
2014-Jul-24 03:32N 44°25' E 008°50'0 0.0
2014-Jul-24 02:26N 44°25' E 008°50'0 0.0
2014-Jul-24 01:23N 44°25' E 008°50'0 0.0
2014-Jul-23 21:29N 44°25' E 008°50'0 0.0
2014-Jul-23 20:23N 44°25' E 008°50'0 0.0
2014-Jul-23 19:32N 44°25' E 008°50'0 0.0
2014-Jul-23 18:32N 44°25' E 008°50'0 0.0
2014-Jul-23 17:29N 44°25' E 008°50'0 0.0
2014-Jul-23 16:23N 44°25' E 008°50'0 0.0
2014-Jul-23 14:05N 44°25' E 008°50'0 0.0
2014-Jul-23 11:23N 44°25' E 008°50'0 0.0
2014-Jul-23 10:23N 44°25' E 008°50'0 0.0
2014-Jul-23 06:29N 44°25' E 008°50'0 0.0
2014-Jul-22 23:11N 44°25' E 008°50'0 0.0
2014-Jul-22 22:23N 44°25' E 008°50'0 0.0
2014-Jul-22 03:29N 44°25' E 008°50'0 0.0
2014-Jul-22 01:29N 44°25' E 008°50'0 0.0
2014-Jul-21 23:11N 44°25' E 008°50'  
Track history (hours):
 
Tides and Currents Weather Stations Pressure Air Temp Water Temp Dewpoint Dewpoint Depression Visibility Wind Speed Wind Dir Waves Ship Positions

Victory

Last reported at 2014-Jul-31 13:33 UTC. Time now 2014-Aug-01 03:47 UTC.
Position N 43°33' E 007°01'.

Length 51 m; draft 3 m.

Type: Pleasure craft. MMSI: 518399000.

Date/timePositionNaut miles runAvg speedWind from/ knotsBaromVisibWave heightAir tempDewpointWater temp
2014-Jul-31 13:33N 43°33' E 007°01'0 0.0
2014-Jul-31 09:16N 43°33' E 007°01'2 3.0
2014-Jul-31 08:33N 43°31' E 007°01'1413.8
2014-Jul-31 07:34N 43°38' E 007°18'8 7.0
2014-Jul-31 06:27N 43°43' E 007°25'0 0.0
2014-Jul-31 04:24N 43°43' E 007°25'0 0.0
2014-Jul-31 03:30N 43°43' E 007°25'0 0.0
2014-Jul-31 02:30N 43°43' E 007°25'0 0.0
2014-Jul-30 18:33N 43°43' E 007°25'0 0.0
2014-Jul-30 16:11N 43°43' E 007°25'54 9.1
2014-Jul-30 10:17N 44°10' E 008°30'710.2
2014-Jul-30 09:33N 44°16' E 008°37'1010.0
2014-Jul-30 08:33N 44°23' E 008°47'3 3.2
2014-Jul-30 07:32N 44°25' E 008°50'0 0.0
2014-Jul-30 06:05N 44°25' E 008°50'0 0.0
2014-Jul-30 04:11N 44°25' E 008°50'0 0.0
2014-Jul-29 23:26N 44°25' E 008°50'0 0.0
2014-Jul-29 19:26N 44°25' E 008°50'0 0.0
2014-Jul-29 18:11N 44°25' E 008°50'0 0.0
2014-Jul-29 11:29N 44°25' E 008°50'0 0.0
2014-Jul-29 10:23N 44°25' E 008°50'0 0.0
2014-Jul-29 07:29N 44°25' E 008°50'0 0.0
2014-Jul-29 06:05N 44°25' E 008°50'0 0.0
2014-Jul-29 01:11N 44°25' E 008°50'0 0.0
2014-Jul-28 02:05N 44°25' E 008°50'0 0.0
2014-Jul-28 01:26N 44°25' E 008°50'0 0.0
2014-Jul-28 00:11N 44°25' E 008°50'0 0.0
2014-Jul-27 19:29N 44°25' E 008°50'0 0.0
2014-Jul-27 16:05N 44°25' E 008°50'0 0.0
2014-Jul-27 15:29N 44°25' E 008°50'0 0.0
2014-Jul-27 14:20N 44°25' E 008°50'0 0.0
2014-Jul-27 12:17N 44°25' E 008°50'0 0.0
2014-Jul-27 04:17N 44°25' E 008°50'0 0.0
2014-Jul-27 02:29N 44°25' E 008°50'0 0.0
2014-Jul-27 01:05N 44°25' E 008°50'0 0.0
2014-Jul-27 00:11N 44°25' E 008°50'0 0.0
2014-Jul-26 19:29N 44°25' E 008°50'0 0.0
2014-Jul-26 11:29N 44°25' E 008°50'0 0.0
2014-Jul-26 00:29N 44°25' E 008°50'0 0.0
2014-Jul-25 19:29N 44°25' E 008°50'0 0.0
2014-Jul-25 11:17N 44°25' E 008°50'0 0.0
2014-Jul-25 01:20N 44°25' E 008°50'0 0.0
2014-Jul-25 00:26N 44°25' E 008°50'0 0.0
2014-Jul-24 23:32N 44°25' E 008°50'0 0.0
2014-Jul-24 19:17N 44°25' E 008°50'0 0.0
2014-Jul-24 03:32N 44°25' E 008°50'0 0.0
2014-Jul-24 02:26N 44°25' E 008°50'0 0.0
2014-Jul-24 01:23N 44°25' E 008°50'0 0.0
2014-Jul-23 21:29N 44°25' E 008°50'0 0.0
2014-Jul-23 20:23N 44°25' E 008°50'0 0.0
2014-Jul-23 19:32N 44°25' E 008°50'0 0.0
2014-Jul-23 18:32N 44°25' E 008°50'0 0.0
2014-Jul-23 17:29N 44°25' E 008°50'0 0.0
2014-Jul-23 16:23N 44°25' E 008°50'0 0.0
2014-Jul-23 14:05N 44°25' E 008°50'0 0.0
2014-Jul-23 11:23N 44°25' E 008°50'0 0.0
2014-Jul-23 10:23N 44°25' E 008°50'0 0.0
2014-Jul-23 06:29N 44°25' E 008°50'0 0.0
2014-Jul-22 23:11N 44°25' E 008°50'0 0.0
2014-Jul-22 22:23N 44°25' E 008°50'0 0.0
2014-Jul-22 03:29N 44°25' E 008°50'0 0.0
2014-Jul-22 01:29N 44°25' E 008°50'0 0.0
2014-Jul-21 23:11N 44°25' E 008°50'  

Dump ship's entire track history